sensor_id;sensor_type;location;lat;lon;timestamp;P1;durP1;ratioP1;P2;durP2;ratioP2
11568;SDS011;5840;46.894;15.542;2022-10-15T00:00:09;54.03;;;48.43;;
11568;SDS011;5840;46.894;15.542;2022-10-15T00:02:36;54.13;;;48.73;;
11568;SDS011;5840;46.894;15.542;2022-10-15T00:05:03;52.43;;;46.90;;
11568;SDS011;5840;46.894;15.542;2022-10-15T00:07:30;50.43;;;45.43;;
11568;SDS011;5840;46.894;15.542;2022-10-15T00:09:57;49.50;;;44.43;;
11568;SDS011;5840;46.894;15.542;2022-10-15T00:12:24;50.37;;;45.47;;
11568;SDS011;5840;46.894;15.542;2022-10-15T00:14:51;52.73;;;47.47;;
11568;SDS011;5840;46.894;15.542;2022-10-15T00:17:20;54.37;;;48.70;;
11568;SDS011;5840;46.894;15.542;2022-10-15T00:19:47;52.37;;;47.03;;
11568;SDS011;5840;46.894;15.542;2022-10-15T00:22:14;49.07;;;44.13;;
11568;SDS011;5840;46.894;15.542;2022-10-15T00:24:41;56.23;;;50.27;;
11568;SDS011;5840;46.894;15.542;2022-10-15T00:27:08;60.53;;;50.47;;
11568;SDS011;5840;46.894;15.542;2022-10-15T00:29:35;49.77;;;44.77;;
11568;SDS011;5840;46.894;15.542;2022-10-15T00:32:02;51.30;;;46.10;;
11568;SDS011;5840;46.894;15.542;2022-10-15T00:34:30;49.17;;;44.10;;
11568;SDS011;5840;46.894;15.542;2022-10-15T00:36:57;45.67;;;40.93;;
11568;SDS011;5840;46.894;15.542;2022-10-15T00:39:24;46.20;;;41.70;;
11568;SDS011;5840;46.894;15.542;2022-10-15T00:41:51;45.20;;;40.63;;
11568;SDS011;5840;46.894;15.542;2022-10-15T00:47:15;71.27;;;45.87;;
11568;SDS011;5840;46.894;15.542;2022-10-15T00:49:47;50.17;;;42.97;;
11568;SDS011;5840;46.894;15.542;2022-10-15T00:52:20;43.93;;;39.63;;
11568;SDS011;5840;46.894;15.542;2022-10-15T00:54:52;39.17;;;35.53;;
11568;SDS011;5840;46.894;15.542;2022-10-15T00:57:23;41.73;;;37.90;;
11568;SDS011;5840;46.894;15.542;2022-10-15T00:59:53;39.80;;;36.10;;
11568;SDS011;5840;46.894;15.542;2022-10-15T01:02:23;41.50;;;35.80;;
11568;SDS011;5840;46.894;15.542;2022-10-15T01:04:52;72.70;;;42.93;;
11568;SDS011;5840;46.894;15.542;2022-10-15T01:07:20;38.80;;;35.20;;
11568;SDS011;5840;46.894;15.542;2022-10-15T01:09:46;37.63;;;34.13;;
11568;SDS011;5840;46.894;15.542;2022-10-15T01:12:16;45.23;;;40.53;;
11568;SDS011;5840;46.894;15.542;2022-10-15T01:14:53;49.77;;;44.13;;
11568;SDS011;5840;46.894;15.542;2022-10-15T01:17:29;49.77;;;44.60;;
11568;SDS011;5840;46.894;15.542;2022-10-15T01:23:22;52.10;;;46.53;;
11568;SDS011;5840;46.894;15.542;2022-10-15T01:26:13;49.07;;;44.13;;
11568;SDS011;5840;46.894;15.542;2022-10-15T01:29:04;47.70;;;42.73;;
11568;SDS011;5840;46.894;15.542;2022-10-15T01:31:42;56.53;;;49.47;;
11568;SDS011;5840;46.894;15.542;2022-10-15T01:34:17;50.40;;;45.03;;
11568;SDS011;5840;46.894;15.542;2022-10-15T01:36:50;128.53;;;44.73;;
11568;SDS011;5840;46.894;15.542;2022-10-15T01:39:20;40.63;;;36.97;;
11568;SDS011;5840;46.894;15.542;2022-10-15T01:41:53;39.37;;;35.87;;
11568;SDS011;5840;46.894;15.542;2022-10-15T01:44:26;45.70;;;38.90;;
11568;SDS011;5840;46.894;15.542;2022-10-15T01:46:58;39.37;;;35.97;;
11568;SDS011;5840;46.894;15.542;2022-10-15T01:49:29;42.97;;;39.07;;
11568;SDS011;5840;46.894;15.542;2022-10-15T01:52:02;40.07;;;36.37;;
11568;SDS011;5840;46.894;15.542;2022-10-15T01:54:34;39.97;;;36.30;;
11568;SDS011;5840;46.894;15.542;2022-10-15T01:57:02;38.73;;;35.33;;
11568;SDS011;5840;46.894;15.542;2022-10-15T01:59:30;36.83;;;33.53;;
11568;SDS011;5840;46.894;15.542;2022-10-15T02:02:00;46.00;;;41.50;;
11568;SDS011;5840;46.894;15.542;2022-10-15T02:04:28;40.63;;;37.03;;
11568;SDS011;5840;46.894;15.542;2022-10-15T02:06:57;49.00;;;42.47;;
11568;SDS011;5840;46.894;15.542;2022-10-15T02:09:30;42.13;;;38.07;;
11568;SDS011;5840;46.894;15.542;2022-10-15T02:12:08;44.93;;;40.83;;
11568;SDS011;5840;46.894;15.542;2022-10-15T02:14:42;42.03;;;38.23;;
11568;SDS011;5840;46.894;15.542;2022-10-15T02:17:17;43.83;;;39.60;;
11568;SDS011;5840;46.894;15.542;2022-10-15T02:19:50;42.87;;;38.80;;
11568;SDS011;5840;46.894;15.542;2022-10-15T02:22:21;47.67;;;42.93;;
11568;SDS011;5840;46.894;15.542;2022-10-15T02:24:52;44.80;;;40.53;;
11568;SDS011;5840;46.894;15.542;2022-10-15T02:27:23;43.70;;;39.53;;
11568;SDS011;5840;46.894;15.542;2022-10-15T02:29:53;41.70;;;37.90;;
11568;SDS011;5840;46.894;15.542;2022-10-15T02:32:24;42.00;;;38.03;;
11568;SDS011;5840;46.894;15.542;2022-10-15T02:34:52;42.63;;;38.70;;
11568;SDS011;5840;46.894;15.542;2022-10-15T02:37:21;41.43;;;37.20;;
11568;SDS011;5840;46.894;15.542;2022-10-15T02:39:50;77.73;;;42.30;;
11568;SDS011;5840;46.894;15.542;2022-10-15T02:42:17;42.00;;;38.37;;
11568;SDS011;5840;46.894;15.542;2022-10-15T02:44:45;44.90;;;40.20;;
11568;SDS011;5840;46.894;15.542;2022-10-15T02:47:12;45.37;;;40.97;;
11568;SDS011;5840;46.894;15.542;2022-10-15T02:49:41;56.67;;;40.47;;
11568;SDS011;5840;46.894;15.542;2022-10-15T02:52:08;99.20;;;43.53;;
11568;SDS011;5840;46.894;15.542;2022-10-15T02:54:35;211.10;;;52.53;;
11568;SDS011;5840;46.894;15.542;2022-10-15T02:57:02;57.30;;;42.17;;
11568;SDS011;5840;46.894;15.542;2022-10-15T02:59:29;76.00;;;42.43;;
11568;SDS011;5840;46.894;15.542;2022-10-15T03:01:56;51.03;;;40.13;;
11568;SDS011;5840;46.894;15.542;2022-10-15T03:04:23;43.80;;;39.50;;
11568;SDS011;5840;46.894;15.542;2022-10-15T03:06:51;44.50;;;40.40;;
11568;SDS011;5840;46.894;15.542;2022-10-15T03:09:18;68.30;;;40.33;;
11568;SDS011;5840;46.894;15.542;2022-10-15T03:11:45;40.47;;;37.03;;
11568;SDS011;5840;46.894;15.542;2022-10-15T03:14:12;59.60;;;42.40;;
11568;SDS011;5840;46.894;15.542;2022-10-15T03:16:39;46.03;;;41.17;;
11568;SDS011;5840;46.894;15.542;2022-10-15T03:19:06;47.20;;;42.27;;
11568;SDS011;5840;46.894;15.542;2022-10-15T03:21:33;47.60;;;43.37;;
11568;SDS011;5840;46.894;15.542;2022-10-15T03:24:01;45.87;;;41.57;;
11568;SDS011;5840;46.894;15.542;2022-10-15T03:26:28;45.43;;;41.33;;
11568;SDS011;5840;46.894;15.542;2022-10-15T03:28:55;43.00;;;39.10;;
11568;SDS011;5840;46.894;15.542;2022-10-15T03:31:22;43.80;;;39.47;;
11568;SDS011;5840;46.894;15.542;2022-10-15T03:33:49;44.37;;;40.20;;
11568;SDS011;5840;46.894;15.542;2022-10-15T03:36:16;76.80;;;40.70;;
11568;SDS011;5840;46.894;15.542;2022-10-15T03:38:43;47.73;;;41.67;;
11568;SDS011;5840;46.894;15.542;2022-10-15T03:41:11;56.80;;;46.50;;
11568;SDS011;5840;46.894;15.542;2022-10-15T03:43:38;71.43;;;42.60;;
11568;SDS011;5840;46.894;15.542;2022-10-15T03:46:05;82.83;;;41.80;;
11568;SDS011;5840;46.894;15.542;2022-10-15T03:48:32;42.43;;;38.40;;
11568;SDS011;5840;46.894;15.542;2022-10-15T03:50:59;45.37;;;40.73;;
11568;SDS011;5840;46.894;15.542;2022-10-15T03:53:26;56.00;;;42.70;;
11568;SDS011;5840;46.894;15.542;2022-10-15T03:55:53;43.53;;;39.67;;
11568;SDS011;5840;46.894;15.542;2022-10-15T03:58:21;47.03;;;42.57;;
11568;SDS011;5840;46.894;15.542;2022-10-15T04:00:48;42.47;;;38.50;;
11568;SDS011;5840;46.894;15.542;2022-10-15T04:03:15;48.97;;;44.03;;
11568;SDS011;5840;46.894;15.542;2022-10-15T04:05:48;41.57;;;37.83;;
11568;SDS011;5840;46.894;15.542;2022-10-15T04:08:15;46.80;;;42.40;;
11568;SDS011;5840;46.894;15.542;2022-10-15T04:10:42;43.30;;;39.47;;
11568;SDS011;5840;46.894;15.542;2022-10-15T04:13:09;46.37;;;39.93;;
11568;SDS011;5840;46.894;15.542;2022-10-15T04:15:38;44.03;;;40.10;;
11568;SDS011;5840;46.894;15.542;2022-10-15T04:18:05;41.50;;;37.80;;
11568;SDS011;5840;46.894;15.542;2022-10-15T04:20:32;42.67;;;38.77;;
11568;SDS011;5840;46.894;15.542;2022-10-15T04:22:59;72.20;;;46.00;;
11568;SDS011;5840;46.894;15.542;2022-10-15T04:25:26;92.77;;;46.33;;
11568;SDS011;5840;46.894;15.542;2022-10-15T04:27:53;43.90;;;39.97;;
11568;SDS011;5840;46.894;15.542;2022-10-15T04:30:20;70.10;;;45.37;;
11568;SDS011;5840;46.894;15.542;2022-10-15T04:32:51;118.43;;;43.10;;
11568;SDS011;5840;46.894;15.542;2022-10-15T04:35:18;42.10;;;38.40;;
11568;SDS011;5840;46.894;15.542;2022-10-15T04:37:45;44.57;;;39.97;;
11568;SDS011;5840;46.894;15.542;2022-10-15T04:40:12;69.03;;;39.23;;
11568;SDS011;5840;46.894;15.542;2022-10-15T04:42:39;46.47;;;41.93;;
11568;SDS011;5840;46.894;15.542;2022-10-15T04:45:07;62.10;;;42.23;;
11568;SDS011;5840;46.894;15.542;2022-10-15T04:47:34;48.80;;;43.60;;
11568;SDS011;5840;46.894;15.542;2022-10-15T04:50:03;47.03;;;42.57;;
11568;SDS011;5840;46.894;15.542;2022-10-15T04:52:30;42.53;;;38.63;;
11568;SDS011;5840;46.894;15.542;2022-10-15T04:54:58;41.37;;;37.77;;
11568;SDS011;5840;46.894;15.542;2022-10-15T04:57:27;41.37;;;37.23;;
11568;SDS011;5840;46.894;15.542;2022-10-15T04:59:54;46.97;;;41.50;;
11568;SDS011;5840;46.894;15.542;2022-10-15T05:02:21;59.80;;;37.77;;
11568;SDS011;5840;46.894;15.542;2022-10-15T05:04:48;42.53;;;38.53;;
11568;SDS011;5840;46.894;15.542;2022-10-15T05:07:16;46.87;;;41.73;;
11568;SDS011;5840;46.894;15.542;2022-10-15T05:09:43;45.93;;;41.30;;
11568;SDS011;5840;46.894;15.542;2022-10-15T05:12:10;43.73;;;39.53;;
11568;SDS011;5840;46.894;15.542;2022-10-15T05:14:37;43.70;;;39.80;;
11568;SDS011;5840;46.894;15.542;2022-10-15T05:17:04;46.60;;;42.30;;
11568;SDS011;5840;46.894;15.542;2022-10-15T05:19:31;49.27;;;44.47;;
11568;SDS011;5840;46.894;15.542;2022-10-15T05:21:58;48.90;;;44.10;;
11568;SDS011;5840;46.894;15.542;2022-10-15T05:24:26;48.77;;;44.07;;
11568;SDS011;5840;46.894;15.542;2022-10-15T05:26:53;44.67;;;40.47;;
11568;SDS011;5840;46.894;15.542;2022-10-15T05:29:20;43.90;;;39.90;;
11568;SDS011;5840;46.894;15.542;2022-10-15T05:31:48;45.53;;;41.40;;
11568;SDS011;5840;46.894;15.542;2022-10-15T05:34:16;45.90;;;41.47;;
11568;SDS011;5840;46.894;15.542;2022-10-15T05:36:43;47.47;;;42.97;;
11568;SDS011;5840;46.894;15.542;2022-10-15T05:39:10;48.77;;;43.93;;
11568;SDS011;5840;46.894;15.542;2022-10-15T05:41:39;50.53;;;45.33;;
11568;SDS011;5840;46.894;15.542;2022-10-15T05:44:06;48.07;;;43.33;;
11568;SDS011;5840;46.894;15.542;2022-10-15T05:46:33;47.60;;;42.93;;
11568;SDS011;5840;46.894;15.542;2022-10-15T05:49:00;75.37;;;47.50;;
11568;SDS011;5840;46.894;15.542;2022-10-15T05:51:27;52.43;;;47.17;;
11568;SDS011;5840;46.894;15.542;2022-10-15T05:53:54;52.67;;;47.03;;
11568;SDS011;5840;46.894;15.542;2022-10-15T05:56:22;88.60;;;56.93;;
11568;SDS011;5840;46.894;15.542;2022-10-15T05:58:51;60.93;;;54.87;;
11568;SDS011;5840;46.894;15.542;2022-10-15T06:01:18;79.97;;;53.93;;
11568;SDS011;5840;46.894;15.542;2022-10-15T06:03:45;48.67;;;43.97;;
11568;SDS011;5840;46.894;15.542;2022-10-15T06:06:12;58.83;;;46.30;;
11568;SDS011;5840;46.894;15.542;2022-10-15T06:08:40;105.17;;;43.57;;
11568;SDS011;5840;46.894;15.542;2022-10-15T06:11:07;152.37;;;51.90;;
11568;SDS011;5840;46.894;15.542;2022-10-15T06:13:36;220.10;;;56.50;;
11568;SDS011;5840;46.894;15.542;2022-10-15T06:16:05;51.90;;;46.10;;
11568;SDS011;5840;46.894;15.542;2022-10-15T06:18:32;183.63;;;47.67;;
11568;SDS011;5840;46.894;15.542;2022-10-15T06:20:59;49.17;;;44.37;;
11568;SDS011;5840;46.894;15.542;2022-10-15T06:23:26;126.43;;;50.63;;
11568;SDS011;5840;46.894;15.542;2022-10-15T06:25:53;102.63;;;49.03;;
11568;SDS011;5840;46.894;15.542;2022-10-15T06:28:20;151.20;;;50.80;;
11568;SDS011;5840;46.894;15.542;2022-10-15T06:30:47;95.63;;;48.67;;
11568;SDS011;5840;46.894;15.542;2022-10-15T06:33:15;57.13;;;45.90;;
11568;SDS011;5840;46.894;15.542;2022-10-15T06:35:42;131.50;;;46.63;;
11568;SDS011;5840;46.894;15.542;2022-10-15T06:38:09;103.40;;;48.43;;
11568;SDS011;5840;46.894;15.542;2022-10-15T06:40:36;70.20;;;49.07;;
11568;SDS011;5840;46.894;15.542;2022-10-15T06:43:04;295.67;;;63.53;;
11568;SDS011;5840;46.894;15.542;2022-10-15T06:45:33;209.63;;;53.87;;
11568;SDS011;5840;46.894;15.542;2022-10-15T06:48:00;289.13;;;62.40;;
11568;SDS011;5840;46.894;15.542;2022-10-15T06:50:30;126.23;;;51.43;;
11568;SDS011;5840;46.894;15.542;2022-10-15T06:52:57;125.27;;;47.90;;
11568;SDS011;5840;46.894;15.542;2022-10-15T06:55:24;178.87;;;51.40;;
11568;SDS011;5840;46.894;15.542;2022-10-15T06:57:53;203.23;;;52.47;;
11568;SDS011;5840;46.894;15.542;2022-10-15T07:00:20;311.33;;;57.40;;
11568;SDS011;5840;46.894;15.542;2022-10-15T07:02:47;277.17;;;54.53;;
11568;SDS011;5840;46.894;15.542;2022-10-15T07:05:14;79.27;;;42.83;;
11568;SDS011;5840;46.894;15.542;2022-10-15T07:07:42;130.13;;;48.50;;
11568;SDS011;5840;46.894;15.542;2022-10-15T07:10:16;155.23;;;47.40;;
11568;SDS011;5840;46.894;15.542;2022-10-15T07:12:43;93.43;;;47.57;;
11568;SDS011;5840;46.894;15.542;2022-10-15T07:15:10;139.07;;;49.20;;
11568;SDS011;5840;46.894;15.542;2022-10-15T07:17:37;169.43;;;52.20;;
11568;SDS011;5840;46.894;15.542;2022-10-15T07:20:05;101.97;;;47.33;;
11568;SDS011;5840;46.894;15.542;2022-10-15T07:22:32;74.47;;;43.53;;
11568;SDS011;5840;46.894;15.542;2022-10-15T07:25:01;52.20;;;45.70;;
11568;SDS011;5840;46.894;15.542;2022-10-15T07:27:28;456.23;;;67.43;;
11568;SDS011;5840;46.894;15.542;2022-10-15T07:29:55;95.43;;;48.57;;
11568;SDS011;5840;46.894;15.542;2022-10-15T07:32:21;284.87;;;60.60;;
11568;SDS011;5840;46.894;15.542;2022-10-15T07:34:48;62.50;;;47.90;;
11568;SDS011;5840;46.894;15.542;2022-10-15T07:37:15;77.40;;;49.30;;
11568;SDS011;5840;46.894;15.542;2022-10-15T07:39:42;49.63;;;44.73;;
11568;SDS011;5840;46.894;15.542;2022-10-15T07:42:10;51.30;;;46.13;;
11568;SDS011;5840;46.894;15.542;2022-10-15T07:44:37;68.63;;;47.10;;
11568;SDS011;5840;46.894;15.542;2022-10-15T07:47:05;60.97;;;48.40;;
11568;SDS011;5840;46.894;15.542;2022-10-15T07:49:32;152.73;;;51.40;;
11568;SDS011;5840;46.894;15.542;2022-10-15T07:51:59;60.70;;;46.93;;
11568;SDS011;5840;46.894;15.542;2022-10-15T07:54:27;61.27;;;46.57;;
11568;SDS011;5840;46.894;15.542;2022-10-15T07:56:54;56.30;;;44.83;;
11568;SDS011;5840;46.894;15.542;2022-10-15T07:59:23;70.17;;;47.63;;
11568;SDS011;5840;46.894;15.542;2022-10-15T08:01:50;58.77;;;48.67;;
11568;SDS011;5840;46.894;15.542;2022-10-15T08:04:17;53.50;;;47.63;;
11568;SDS011;5840;46.894;15.542;2022-10-15T08:06:44;59.23;;;46.90;;
11568;SDS011;5840;46.894;15.542;2022-10-15T08:09:11;77.90;;;47.53;;
11568;SDS011;5840;46.894;15.542;2022-10-15T08:11:38;53.50;;;47.70;;
11568;SDS011;5840;46.894;15.542;2022-10-15T08:14:05;52.57;;;46.63;;
11568;SDS011;5840;46.894;15.542;2022-10-15T08:16:34;50.57;;;45.53;;
11568;SDS011;5840;46.894;15.542;2022-10-15T08:19:01;52.00;;;46.30;;
11568;SDS011;5840;46.894;15.542;2022-10-15T08:21:28;46.10;;;41.50;;
11568;SDS011;5840;46.894;15.542;2022-10-15T08:23:55;48.97;;;44.13;;
11568;SDS011;5840;46.894;15.542;2022-10-15T08:26:22;50.43;;;45.10;;
11568;SDS011;5840;46.894;15.542;2022-10-15T08:28:50;48.60;;;43.40;;
11568;SDS011;5840;46.894;15.542;2022-10-15T08:31:17;50.67;;;45.37;;
11568;SDS011;5840;46.894;15.542;2022-10-15T08:33:45;49.23;;;44.30;;
11568;SDS011;5840;46.894;15.542;2022-10-15T08:36:12;49.10;;;44.03;;
11568;SDS011;5840;46.894;15.542;2022-10-15T08:38:39;49.37;;;44.50;;
11568;SDS011;5840;46.894;15.542;2022-10-15T08:41:13;51.10;;;45.97;;
11568;SDS011;5840;46.894;15.542;2022-10-15T08:43:47;50.80;;;45.73;;
11568;SDS011;5840;46.894;15.542;2022-10-15T08:46:15;50.27;;;45.23;;
11568;SDS011;5840;46.894;15.542;2022-10-15T08:48:49;47.27;;;42.63;;
11568;SDS011;5840;46.894;15.542;2022-10-15T08:51:20;49.37;;;44.20;;
11568;SDS011;5840;46.894;15.542;2022-10-15T08:53:51;49.43;;;44.57;;
11568;SDS011;5840;46.894;15.542;2022-10-15T08:56:23;49.10;;;44.30;;
11568;SDS011;5840;46.894;15.542;2022-10-15T08:58:55;49.63;;;44.73;;
11568;SDS011;5840;46.894;15.542;2022-10-15T09:01:28;50.13;;;45.20;;
11568;SDS011;5840;46.894;15.542;2022-10-15T09:04:05;49.53;;;44.67;;
11568;SDS011;5840;46.894;15.542;2022-10-15T09:06:42;48.93;;;44.30;;
11568;SDS011;5840;46.894;15.542;2022-10-15T09:09:11;50.10;;;45.10;;
11568;SDS011;5840;46.894;15.542;2022-10-15T09:11:47;48.27;;;43.50;;
11568;SDS011;5840;46.894;15.542;2022-10-15T09:14:23;50.27;;;45.23;;
11568;SDS011;5840;46.894;15.542;2022-10-15T09:16:53;47.80;;;42.93;;
11568;SDS011;5840;46.894;15.542;2022-10-15T09:19:23;45.50;;;41.10;;
11568;SDS011;5840;46.894;15.542;2022-10-15T09:21:53;48.23;;;43.43;;
11568;SDS011;5840;46.894;15.542;2022-10-15T09:24:22;50.27;;;44.93;;
11568;SDS011;5840;46.894;15.542;2022-10-15T09:26:52;50.43;;;45.23;;
11568;SDS011;5840;46.894;15.542;2022-10-15T09:29:26;48.97;;;44.07;;
11568;SDS011;5840;46.894;15.542;2022-10-15T09:32:02;51.67;;;46.67;;
11568;SDS011;5840;46.894;15.542;2022-10-15T09:34:38;46.80;;;42.23;;
11568;SDS011;5840;46.894;15.542;2022-10-15T09:37:11;50.80;;;45.43;;
11568;SDS011;5840;46.894;15.542;2022-10-15T09:39:47;48.63;;;43.93;;
11568;SDS011;5840;46.894;15.542;2022-10-15T09:42:26;49.03;;;43.87;;
11568;SDS011;5840;46.894;15.542;2022-10-15T09:44:56;49.43;;;44.60;;
11568;SDS011;5840;46.894;15.542;2022-10-15T09:47:26;49.50;;;44.57;;
11568;SDS011;5840;46.894;15.542;2022-10-15T09:49:55;48.10;;;43.50;;
11568;SDS011;5840;46.894;15.542;2022-10-15T09:52:24;49.80;;;44.90;;
11568;SDS011;5840;46.894;15.542;2022-10-15T09:55:06;46.97;;;42.50;;
11568;SDS011;5840;46.894;15.542;2022-10-15T09:57:44;49.83;;;44.93;;
11568;SDS011;5840;46.894;15.542;2022-10-15T10:00:16;50.47;;;45.57;;
11568;SDS011;5840;46.894;15.542;2022-10-15T10:02:43;46.73;;;42.37;;
11568;SDS011;5840;46.894;15.542;2022-10-15T10:05:31;49.80;;;45.10;;
11568;SDS011;5840;46.894;15.542;2022-10-15T10:08:07;48.53;;;43.67;;
11568;SDS011;5840;46.894;15.542;2022-10-15T10:10:35;48.10;;;43.53;;
11568;SDS011;5840;46.894;15.542;2022-10-15T10:13:03;49.87;;;44.77;;
11568;SDS011;5840;46.894;15.542;2022-10-15T10:15:47;53.03;;;47.80;;
11568;SDS011;5840;46.894;15.542;2022-10-15T10:18:17;52.73;;;47.37;;
11568;SDS011;5840;46.894;15.542;2022-10-15T10:20:52;50.27;;;45.30;;
11568;SDS011;5840;46.894;15.542;2022-10-15T10:23:23;52.50;;;47.67;;
11568;SDS011;5840;46.894;15.542;2022-10-15T10:25:55;49.00;;;44.50;;
11568;SDS011;5840;46.894;15.542;2022-10-15T10:28:26;53.60;;;48.33;;
11568;SDS011;5840;46.894;15.542;2022-10-15T10:30:59;51.20;;;46.10;;
11568;SDS011;5840;46.894;15.542;2022-10-15T10:33:29;51.77;;;46.67;;
11568;SDS011;5840;46.894;15.542;2022-10-15T10:36:17;50.57;;;45.63;;
11568;SDS011;5840;46.894;15.542;2022-10-15T10:38:53;48.50;;;43.77;;
11568;SDS011;5840;46.894;15.542;2022-10-15T10:41:23;51.67;;;46.70;;
11568;SDS011;5840;46.894;15.542;2022-10-15T10:44:17;47.17;;;42.97;;
11568;SDS011;5840;46.894;15.542;2022-10-15T10:46:57;46.73;;;42.43;;
11568;SDS011;5840;46.894;15.542;2022-10-15T10:49:31;47.13;;;42.80;;
11568;SDS011;5840;46.894;15.542;2022-10-15T10:51:59;49.00;;;44.27;;
11568;SDS011;5840;46.894;15.542;2022-10-15T10:54:26;47.87;;;43.20;;
11568;SDS011;5840;46.894;15.542;2022-10-15T10:56:54;45.10;;;40.97;;
11568;SDS011;5840;46.894;15.542;2022-10-15T10:59:24;46.97;;;42.43;;
11568;SDS011;5840;46.894;15.542;2022-10-15T11:01:54;46.40;;;41.77;;
11568;SDS011;5840;46.894;15.542;2022-10-15T11:04:22;46.83;;;42.53;;
11568;SDS011;5840;46.894;15.542;2022-10-15T11:06:55;44.33;;;40.17;;
11568;SDS011;5840;46.894;15.542;2022-10-15T11:09:36;44.07;;;40.03;;
11568;SDS011;5840;46.894;15.542;2022-10-15T11:15:09;45.03;;;40.77;;
11568;SDS011;5840;46.894;15.542;2022-10-15T11:17:48;45.40;;;41.13;;
11568;SDS011;5840;46.894;15.542;2022-10-15T11:20:27;44.27;;;40.30;;
11568;SDS011;5840;46.894;15.542;2022-10-15T11:23:03;45.10;;;40.87;;
11568;SDS011;5840;46.894;15.542;2022-10-15T11:25:40;44.00;;;40.13;;
11568;SDS011;5840;46.894;15.542;2022-10-15T11:28:23;42.97;;;39.03;;
11568;SDS011;5840;46.894;15.542;2022-10-15T11:31:04;43.20;;;39.30;;
11568;SDS011;5840;46.894;15.542;2022-10-15T11:33:46;44.50;;;40.13;;
11568;SDS011;5840;46.894;15.542;2022-10-15T11:39:20;40.07;;;36.57;;
11568;SDS011;5840;46.894;15.542;2022-10-15T11:42:02;42.67;;;38.67;;
11568;SDS011;5840;46.894;15.542;2022-10-15T11:44:43;42.33;;;38.40;;
11568;SDS011;5840;46.894;15.542;2022-10-15T11:47:30;40.83;;;37.20;;
11568;SDS011;5840;46.894;15.542;2022-10-15T11:50:16;42.47;;;38.47;;
11568;SDS011;5840;46.894;15.542;2022-10-15T11:52:55;38.97;;;35.27;;
11568;SDS011;5840;46.894;15.542;2022-10-15T11:55:38;41.93;;;38.23;;
11568;SDS011;5840;46.894;15.542;2022-10-15T11:58:10;38.43;;;34.93;;
11568;SDS011;5840;46.894;15.542;2022-10-15T12:00:44;38.60;;;35.10;;
11568;SDS011;5840;46.894;15.542;2022-10-15T12:03:15;39.57;;;35.97;;
11568;SDS011;5840;46.894;15.542;2022-10-15T12:05:46;41.50;;;37.90;;
11568;SDS011;5840;46.894;15.542;2022-10-15T12:08:15;43.30;;;39.40;;
11568;SDS011;5840;46.894;15.542;2022-10-15T12:10:58;42.63;;;38.53;;
11568;SDS011;5840;46.894;15.542;2022-10-15T12:13:34;38.47;;;35.00;;
11568;SDS011;5840;46.894;15.542;2022-10-15T12:16:17;39.60;;;35.80;;
11568;SDS011;5840;46.894;15.542;2022-10-15T12:18:51;40.23;;;36.73;;
11568;SDS011;5840;46.894;15.542;2022-10-15T12:21:32;37.73;;;34.30;;
11568;SDS011;5840;46.894;15.542;2022-10-15T12:24:03;40.07;;;36.57;;
11568;SDS011;5840;46.894;15.542;2022-10-15T12:26:52;39.77;;;36.23;;
11568;SDS011;5840;46.894;15.542;2022-10-15T12:29:20;41.80;;;38.00;;
11568;SDS011;5840;46.894;15.542;2022-10-15T12:31:49;39.20;;;35.70;;
11568;SDS011;5840;46.894;15.542;2022-10-15T12:34:24;40.13;;;36.30;;
11568;SDS011;5840;46.894;15.542;2022-10-15T12:37:00;39.27;;;35.67;;
11568;SDS011;5840;46.894;15.542;2022-10-15T12:39:30;40.57;;;36.87;;
11568;SDS011;5840;46.894;15.542;2022-10-15T12:42:02;37.57;;;34.07;;
11568;SDS011;5840;46.894;15.542;2022-10-15T12:44:29;37.90;;;34.37;;
11568;SDS011;5840;46.894;15.542;2022-10-15T12:46:58;39.27;;;35.67;;
11568;SDS011;5840;46.894;15.542;2022-10-15T12:49:45;35.77;;;32.53;;
11568;SDS011;5840;46.894;15.542;2022-10-15T12:55:26;37.53;;;34.23;;
11568;SDS011;5840;46.894;15.542;2022-10-15T12:58:00;40.13;;;36.23;;
11568;SDS011;5840;46.894;15.542;2022-10-15T13:00:30;39.57;;;35.87;;
11568;SDS011;5840;46.894;15.542;2022-10-15T13:03:08;38.23;;;34.60;;
11568;SDS011;5840;46.894;15.542;2022-10-15T13:05:47;38.30;;;34.60;;
11568;SDS011;5840;46.894;15.542;2022-10-15T13:08:15;38.33;;;35.13;;
11568;SDS011;5840;46.894;15.542;2022-10-15T13:10:48;41.63;;;37.63;;
11568;SDS011;5840;46.894;15.542;2022-10-15T13:13:20;39.17;;;35.63;;
11568;SDS011;5840;46.894;15.542;2022-10-15T13:15:49;40.10;;;36.40;;
11568;SDS011;5840;46.894;15.542;2022-10-15T13:18:19;40.73;;;36.70;;
11568;SDS011;5840;46.894;15.542;2022-10-15T13:20:47;40.73;;;36.93;;
11568;SDS011;5840;46.894;15.542;2022-10-15T13:23:19;37.13;;;33.83;;
11568;SDS011;5840;46.894;15.542;2022-10-15T13:25:47;37.60;;;34.30;;
11568;SDS011;5840;46.894;15.542;2022-10-15T13:31:11;37.83;;;34.53;;
11568;SDS011;5840;46.894;15.542;2022-10-15T13:33:43;37.27;;;33.93;;
11568;SDS011;5840;46.894;15.542;2022-10-15T13:36:15;42.37;;;38.63;;
11568;SDS011;5840;46.894;15.542;2022-10-15T13:38:50;41.00;;;37.23;;
11568;SDS011;5840;46.894;15.542;2022-10-15T13:41:23;39.60;;;36.03;;
11568;SDS011;5840;46.894;15.542;2022-10-15T13:43:53;41.17;;;37.23;;
11568;SDS011;5840;46.894;15.542;2022-10-15T13:46:23;41.30;;;37.23;;
11568;SDS011;5840;46.894;15.542;2022-10-15T13:48:55;43.67;;;39.53;;
11568;SDS011;5840;46.894;15.542;2022-10-15T13:51:23;41.23;;;37.23;;
11568;SDS011;5840;46.894;15.542;2022-10-15T13:53:54;41.63;;;37.63;;
11568;SDS011;5840;46.894;15.542;2022-10-15T13:56:22;38.17;;;34.77;;
11568;SDS011;5840;46.894;15.542;2022-10-15T13:58:52;40.13;;;36.50;;
11568;SDS011;5840;46.894;15.542;2022-10-15T14:01:20;40.60;;;36.97;;
11568;SDS011;5840;46.894;15.542;2022-10-15T14:03:48;40.40;;;36.60;;
11568;SDS011;5840;46.894;15.542;2022-10-15T14:06:17;41.90;;;37.93;;
11568;SDS011;5840;46.894;15.542;2022-10-15T14:08:46;41.07;;;37.30;;
11568;SDS011;5840;46.894;15.542;2022-10-15T14:11:13;39.90;;;36.37;;
11568;SDS011;5840;46.894;15.542;2022-10-15T14:13:45;41.10;;;37.40;;
11568;SDS011;5840;46.894;15.542;2022-10-15T14:16:16;38.97;;;35.30;;
11568;SDS011;5840;46.894;15.542;2022-10-15T14:18:46;41.27;;;37.50;;
11568;SDS011;5840;46.894;15.542;2022-10-15T14:21:16;38.20;;;34.77;;
11568;SDS011;5840;46.894;15.542;2022-10-15T14:23:44;40.40;;;36.80;;
11568;SDS011;5840;46.894;15.542;2022-10-15T14:26:13;43.20;;;39.10;;
11568;SDS011;5840;46.894;15.542;2022-10-15T14:28:49;41.07;;;37.27;;
11568;SDS011;5840;46.894;15.542;2022-10-15T14:31:29;43.43;;;39.47;;
11568;SDS011;5840;46.894;15.542;2022-10-15T14:34:01;39.17;;;35.67;;
11568;SDS011;5840;46.894;15.542;2022-10-15T14:36:29;42.13;;;38.27;;
11568;SDS011;5840;46.894;15.542;2022-10-15T14:39:24;40.10;;;36.50;;
11568;SDS011;5840;46.894;15.542;2022-10-15T14:41:53;39.27;;;35.87;;
11568;SDS011;5840;46.894;15.542;2022-10-15T14:44:21;39.90;;;36.30;;
11568;SDS011;5840;46.894;15.542;2022-10-15T14:46:50;38.90;;;35.23;;
11568;SDS011;5840;46.894;15.542;2022-10-15T14:49:27;41.13;;;37.43;;
11568;SDS011;5840;46.894;15.542;2022-10-15T14:51:58;42.63;;;38.50;;
11568;SDS011;5840;46.894;15.542;2022-10-15T14:54:32;40.63;;;36.93;;
11568;SDS011;5840;46.894;15.542;2022-10-15T14:57:02;39.83;;;36.00;;